パリ/シャルル・ド・ゴール の空港の天気 - METARとTAF

シャルル・ド・ゴール国際空港(パリ) ( LFPG / CDG ) - フランス Paris
飛行場実況気象(Metar)
観測時間08/18 15:00 CEST (08/18 13:00 UTC)
風向・風速北 3m/s
視程10km以上
天気現象
全天の4割程度の雲 雲底高度 1310m
少しの雲 雲底高度 1400m
気温27℃
湿度48%
気圧1014hPa
METARLFPG 181300Z 35005KT 280V050 9999 SCT043 FEW046TCU 27/15 Q1014 TEMPO 4000 SHRA SCT030TCU
過去の天気等 Google飛行場航空写真 Wunderground天気予報

過去48時間のMETAR

飛行場予報(TAF)
発表時間: 8/18 13:00 CEST (8/18 11:00 UTC)
予報対象時間: 18日14時 CEST ~ 19日20時 CEST
風向・風速北北西 5m/s
視程10km以上
全天の4割程度の塔状積雲 雲底高度 910m
18日14時 CEST ~ 18日20時 CEST に 確率 40% で一時的に
視程4000m
天気現象しゅう雨
18日15時 CEST ~ 18日18時 CEST に 確率 30% で一時的に
全天の4割程度の積乱雲 雲底高度 910m
18日20時 CEST ~ 18日22時 CEST に徐々に
視程10km以上
なし
19日5時 CEST ~ 19日8時 CEST に徐々に
全天の8割程度の雲 雲底高度 400m
19日8時 CEST ~ 19日10時 CEST に 確率 30% で一時的に
全天の8割程度の雲 雲底高度 210m
19日10時 CEST ~ 19日12時 CEST に徐々に
全天の8割程度の雲 雲底高度 610m
19日16時 CEST ~ 19日20時 CEST に 確率 40% で一時的に
視程4000m
天気現象しゅう雨
全天の4割程度の塔状積雲 雲底高度 1220m
19日17時 CEST ~ 19日20時 CEST に 確率 30% で一時的に
天気現象雷雨
全天の4割程度の積乱雲 雲底高度 910m
TAF LFPG 181100Z 1812/1918 34010KT 9999 SCT030TCU TX27/1815Z TN14/1905Z
PROB40 TEMPO 1812/1818 4000 SHRA
PROB30 TEMPO 1813/1816 SCT030CB
BECMG 1818/1820 CAVOK
BECMG 1903/1906 BKN013
PROB30 TEMPO 1906/1908 BKN007
BECMG 1908/1910 BKN020
PROB40 TEMPO 1914/1918 4000 SHRA SCT040TCU
PROB30 TEMPO 1915/1918 TSRA SCT030CB